Time;durP1;ratioP1;P1;durP2;ratioP2;P2;SDS_P1;SDS_P2;PMS_P1;PMS_P2;Temp;Humidity;BMP_temperature;BMP_pressure;BME280_temperature;BME280_humidity;BME280_pressure;Samples;Min_cycle;Max_cycle;Signal;HPM_P1;HPM_P2
2022/09/28 00:01:23;;;;;;;2.85;1.65;;;15.90;99.90;;;;;;4986716;28;20041;-74
2022/09/28 00:03:53;;;;;;;1.27;1.00;;;15.90;99.90;;;;;;4986053;28;20095;-71
2022/09/28 00:06:23;;;;;;;2.05;1.13;;;15.80;99.90;;;;;;4984743;28;20460;-72
2022/09/28 00:08:51;;;;;;;1.88;0.88;;;15.90;99.90;;;;;;4985515;28;20464;-74
2022/09/28 00:11:21;;;;;;;2.25;1.20;;;15.80;99.90;;;;;;4986589;28;20100;-73
2022/09/28 00:13:55;;;;;;;3.88;0.90;;;15.80;99.90;;;;;;4986289;28;20027;-73
2022/09/28 00:16:27;;;;;;;5.10;1.30;;;15.90;99.90;;;;;;4984782;28;20082;-72
2022/09/28 00:18:55;;;;;;;1.60;1.00;;;15.90;99.90;;;;;;4984727;28;20026;-71
2022/09/28 00:21:26;;;;;;;1.63;1.05;;;16.00;99.90;;;;;;4985709;28;20031;-73
2022/09/28 00:24:13;;;;;;;3.25;1.17;;;16.10;99.90;;;;;;4986431;28;20023;-72
2022/09/28 00:26:47;;;;;;;3.25;0.90;;;16.20;99.90;;;;;;4983785;28;20035;-69
2022/09/28 00:29:22;;;;;;;2.60;1.10;;;16.30;99.90;;;;;;4982900;28;20018;-68
2022/09/28 00:31:55;;;;;;;1.42;0.93;;;16.50;99.90;;;;;;4981216;28;20433;-69
2022/09/28 00:34:24;;;;;;;1.98;1.10;;;16.70;99.90;;;;;;4982340;28;20034;-73
2022/09/28 00:36:51;;;;;;;1.02;0.70;;;16.60;99.90;;;;;;4984446;28;20021;-69
2022/09/28 00:39:20;;;;;;;2.58;0.95;;;16.50;99.90;;;;;;4987095;28;20049;-69
2022/09/28 00:41:48;;;;;;;1.23;0.70;;;16.50;99.90;;;;;;4974713;28;20022;-69
2022/09/28 00:44:22;;;;;;;1.20;0.82;;;16.40;99.90;;;;;;4975952;28;20034;-69
2022/09/28 00:47:02;;;;;;;1.00;0.70;;;16.40;99.90;;;;;;4975952;28;20023;-70
2022/09/28 00:49:44;;;;;;;1.38;0.68;;;16.40;99.90;;;;;;4975975;28;20037;-70
2022/09/28 00:52:18;;;;;;;2.38;0.98;;;16.50;99.90;;;;;;4975881;28;20050;-70
2022/09/28 00:54:47;;;;;;;1.23;0.90;;;16.60;99.90;;;;;;4975543;28;20081;-69
2022/09/28 00:57:15;;;;;;;0.82;0.68;;;16.60;99.90;;;;;;4974313;28;20023;-72
2022/09/28 00:59:43;;;;;;;1.92;0.80;;;16.70;99.90;;;;;;4975772;28;20031;-70
2022/09/28 01:02:11;;;;;;;1.42;0.70;;;16.80;99.90;;;;;;4981582;28;20054;-70
2022/09/28 01:04:39;;;;;;;1.05;0.68;;;16.80;99.90;;;;;;4984008;28;20492;-69
2022/09/28 01:07:08;;;;;;;1.83;0.93;;;16.90;99.90;;;;;;4985017;28;20077;-70
2022/09/28 01:09:39;;;;;;;1.50;0.88;;;16.90;99.90;;;;;;4986307;28;20029;-73
2022/09/28 01:12:07;;;;;;;1.63;0.77;;;17.00;99.90;;;;;;4984764;28;20062;-72
2022/09/28 01:14:35;;;;;;;1.55;0.82;;;17.20;99.90;;;;;;4984029;28;20069;-73
2022/09/28 01:17:30;;;;;;;1.15;0.70;;;17.30;99.90;;;;;;4984246;28;20022;-72
2022/09/28 01:20:23;;;;;;;0.85;0.47;;;17.50;99.90;;;;;;4985624;28;20133;-75
2022/09/28 01:23:23;;;;;;;1.10;0.70;;;17.60;99.90;;;;;;4984292;28;20080;-75
2022/09/28 01:25:50;;;;;;;1.95;0.82;;;17.60;99.90;;;;;;4963381;28;20026;-71
2022/09/28 01:28:29;;;;;;;3.83;0.82;;;17.60;99.90;;;;;;4985643;28;20076;-73
2022/09/28 01:31:00;;;;;;;1.40;0.80;;;17.60;99.90;;;;;;4985234;28;20046;-72
2022/09/28 01:33:38;;;;;;;0.90;0.57;;;17.60;99.90;;;;;;4984619;28;20022;-71
2022/09/28 01:36:41;;;;;;;1.30;0.70;;;17.80;99.90;;;;;;4984262;28;20026;-69
2022/09/28 01:39:37;;;;;;;5.43;0.90;;;17.70;99.90;;;;;;4984471;28;20030;-76
2022/09/28 01:42:12;;;;;;;2.37;0.90;;;17.70;99.90;;;;;;4983847;28;20027;-75
2022/09/28 01:44:44;;;;;;;0.70;0.70;;;17.50;99.90;;;;;;4983201;28;20042;-75
2022/09/28 01:47:17;;;;;;;2.40;0.93;;;17.60;99.90;;;;;;4983440;28;20018;-76
2022/09/28 01:49:52;;;;;;;3.08;0.70;;;17.60;99.90;;;;;;4983692;28;20050;-76
2022/09/28 01:52:39;;;;;;;1.13;0.80;;;17.80;99.90;;;;;;4982057;28;20159;-76
2022/09/28 01:55:24;;;;;;;1.00;0.65;;;17.60;99.90;;;;;;4984032;28;20031;-72
2022/09/28 01:57:59;;;;;;;0.93;0.60;;;17.60;99.90;;;;;;4984705;28;20043;-73
2022/09/28 02:00:28;;;;;;;1.08;0.55;;;17.50;99.90;;;;;;4983902;28;20042;-73
2022/09/28 02:03:29;;;;;;;1.17;0.50;;;17.60;99.90;;;;;;4982851;28;20037;-72
2022/09/28 02:06:34;;;;;;;0.98;0.70;;;17.70;99.90;;;;;;4985000;28;20022;-73
2022/09/28 02:09:29;;;;;;;3.05;0.80;;;17.90;99.90;;;;;;4980789;28;20031;-73
2022/09/28 02:12:02;;;;;;;2.60;0.60;;;18.10;99.90;;;;;;4984862;28;20034;-75
2022/09/28 02:14:32;;;;;;;1.13;0.60;;;18.30;99.90;;;;;;4984191;28;20464;-74
2022/09/28 02:17:03;;;;;;;5.97;0.57;;;18.40;99.90;;;;;;4982915;28;20033;-73
2022/09/28 02:19:32;;;;;;;1.67;0.90;;;18.20;99.90;;;;;;4983332;28;20042;-83
2022/09/28 02:22:00;;;;;;;1.20;0.60;;;18.00;99.90;;;;;;4984656;28;20037;-75
2022/09/28 02:25:06;;;;;;;0.82;0.43;;;17.80;99.90;;;;;;4983524;28;20527;-72
2022/09/28 02:27:49;;;;;;;1.00;0.55;;;17.60;99.90;;;;;;4982981;28;20117;-72
2022/09/28 02:30:17;;;;;;;0.57;0.40;;;17.60;99.90;;;;;;4990138;28;20070;-72
2022/09/28 02:32:49;;;;;;;0.63;0.47;;;17.70;99.90;;;;;;4988710;28;20534;-71
2022/09/28 02:35:19;;;;;;;0.65;0.30;;;17.90;99.90;;;;;;4987994;28;20402;-71
2022/09/28 02:37:47;;;;;;;2.85;0.60;;;18.20;99.90;;;;;;4989627;28;20101;-72
2022/09/28 02:40:16;;;;;;;0.73;0.50;;;18.20;99.90;;;;;;4988885;28;20395;-72
2022/09/28 02:43:29;;;;;;;1.00;0.45;;;18.20;99.90;;;;;;4987388;28;20073;-72
2022/09/28 02:46:12;;;;;;;0.82;0.55;;;18.20;99.90;;;;;;4989210;28;20487;-71
2022/09/28 02:49:04;;;;;;;1.50;0.47;;;18.30;99.90;;;;;;4986794;28;20122;-71
2022/09/28 02:51:38;;;;;;;2.25;0.50;;;18.50;99.90;;;;;;4988096;28;20472;-72
2022/09/28 02:54:21;;;;;;;0.73;0.50;;;18.60;99.90;;;;;;4989242;28;20540;-72
2022/09/28 02:57:10;;;;;;;1.35;0.73;;;18.60;99.90;;;;;;4990160;28;20050;-72
2022/09/28 02:59:49;;;;;;;0.55;0.40;;;18.70;99.90;;;;;;4990755;28;20418;-72
2022/09/28 03:02:33;;;;;;;0.75;0.40;;;19.00;99.90;;;;;;4990919;28;20030;-72
2022/09/28 03:05:14;;;;;;;0.60;0.50;;;19.10;99.90;;;;;;4988930;28;20023;-72
2022/09/28 03:08:01;;;;;;;1.00;0.50;;;19.20;99.90;;;;;;4989042;28;20019;-71
2022/09/28 03:10:35;;;;;;;0.98;0.47;;;19.00;99.90;;;;;;4989824;28;20480;-72
2022/09/28 03:13:04;;;;;;;0.77;0.60;;;18.80;99.90;;;;;;4989216;28;20023;-72
2022/09/28 03:15:36;;;;;;;0.80;0.60;;;18.60;99.90;;;;;;4988811;28;20055;-72
2022/09/28 03:18:04;;;;;;;0.80;0.60;;;18.50;99.90;;;;;;4990390;28;20022;-72
2022/09/28 03:20:33;;;;;;;1.52;0.60;;;18.60;99.90;;;;;;4990010;28;20459;-72
2022/09/28 03:23:01;;;;;;;1.45;0.40;;;18.70;99.90;;;;;;4988828;28;20109;-71
2022/09/28 03:25:28;;;;;;;0.38;0.38;;;18.70;99.90;;;;;;4989780;28;20077;-72
2022/09/28 03:27:56;;;;;;;3.58;2.22;;;18.90;99.90;;;;;;4990687;28;20061;-71
2022/09/28 03:30:24;;;;;;;1.30;0.50;;;19.10;99.90;;;;;;4988766;28;20082;-72
2022/09/28 03:33:01;;;;;;;2.10;0.68;;;19.20;99.90;;;;;;4989269;28;20030;-72
2022/09/28 03:35:29;;;;;;;1.63;0.30;;;19.30;99.90;;;;;;4989665;28;20495;-72
2022/09/28 03:37:57;;;;;;;0.70;0.40;;;19.50;99.90;;;;;;4984992;28;20065;-72
2022/09/28 03:40:25;;;;;;;0.40;0.40;;;19.40;99.90;;;;;;4986850;28;20093;-72
2022/09/28 03:42:52;;;;;;;0.65;0.50;;;19.40;99.90;;;;;;4987102;28;20030;-72
2022/09/28 03:45:20;;;;;;;0.82;0.47;;;19.30;99.90;;;;;;4985327;28;20038;-72
2022/09/28 03:47:48;;;;;;;0.77;0.45;;;19.50;99.90;;;;;;4986836;28;20025;-72
2022/09/28 03:50:16;;;;;;;1.35;0.40;;;19.70;99.90;;;;;;4987334;28;20565;-72
2022/09/28 03:52:44;;;;;;;0.65;0.40;;;19.90;99.90;;;;;;4985614;28;20050;-72
2022/09/28 03:55:12;;;;;;;0.50;0.30;;;20.10;99.90;;;;;;4985851;28;20069;-71
2022/09/28 03:57:39;;;;;;;1.00;0.40;;;20.30;99.90;;;;;;4987206;28;20015;-72
2022/09/28 04:00:08;;;;;;;0.70;0.50;;;20.30;99.90;;;;;;4985630;28;20030;-72
2022/09/28 04:02:35;;;;;;;1.13;0.50;;;20.20;99.90;;;;;;4985224;28;20026;-72
2022/09/28 04:05:03;;;;;;;0.77;0.38;;;19.90;99.90;;;;;;4986783;28;20022;-71
2022/09/28 04:07:31;;;;;;;0.82;0.57;;;19.70;99.90;;;;;;4986488;28;20037;-72
2022/09/28 04:09:59;;;;;;;1.05;0.50;;;19.60;99.90;;;;;;4984855;28;20376;-72
2022/09/28 04:12:26;;;;;;;1.45;0.88;;;19.40;99.90;;;;;;4986279;28;20033;-72
2022/09/28 04:14:54;;;;;;;4.18;1.00;;;19.30;99.90;;;;;;4986622;28;20357;-72
2022/09/28 04:17:22;;;;;;;3.88;1.40;;;19.30;99.90;;;;;;4984897;28;20147;-72
2022/09/28 04:19:49;;;;;;;2.78;1.60;;;19.20;99.90;;;;;;4987586;28;20188;-72
2022/09/28 04:22:17;;;;;;;9.88;1.80;;;19.10;99.90;;;;;;4984722;28;20102;-71
2022/09/28 04:24:45;;;;;;;3.47;1.23;;;18.90;99.90;;;;;;4986342;28;20033;-72
2022/09/28 04:29:59;;;;;;;5.20;1.30;;;18.60;99.90;;;;;;4986662;28;20057;-72
2022/09/28 04:32:27;;;;;;;5.32;1.50;;;18.40;99.90;;;;;;4985515;28;20155;-71
2022/09/28 04:34:55;;;;;;;6.95;1.38;;;18.20;99.90;;;;;;4983595;28;20111;-72
2022/09/28 04:37:23;;;;;;;5.70;1.90;;;18.10;99.90;;;;;;4986387;28;20026;-72
2022/09/28 04:39:51;;;;;;;5.55;1.83;;;18.00;99.90;;;;;;4985565;28;20019;-71
2022/09/28 04:42:18;;;;;;;12.32;2.10;;;17.90;99.90;;;;;;4984451;28;20023;-72
2022/09/28 04:44:46;;;;;;;2.97;1.05;;;17.80;99.90;;;;;;4985863;28;20015;-72
2022/09/28 04:47:14;;;;;;;6.35;1.50;;;17.90;99.90;;;;;;4986070;28;20027;-72
2022/09/28 04:49:41;;;;;;;6.80;1.30;;;18.10;99.90;;;;;;4983780;28;20027;-71
2022/09/28 04:52:09;;;;;;;12.10;1.80;;;18.20;99.90;;;;;;4985198;28;20105;-72
2022/09/28 04:54:37;;;;;;;3.58;1.40;;;18.20;99.90;;;;;;4986226;28;20029;-72
2022/09/28 04:57:05;;;;;;;4.82;1.10;;;18.10;99.90;;;;;;4984730;28;20113;-71
2022/09/28 04:59:32;;;;;;;2.47;0.93;;;18.20;99.90;;;;;;4984615;28;20483;-72
2022/09/28 05:02:00;;;;;;;6.65;1.60;;;18.40;99.90;;;;;;4985825;28;20041;-74
2022/09/28 05:04:29;;;;;;;4.60;1.58;;;18.50;99.90;;;;;;4984941;28;20114;-72
2022/09/28 05:06:57;;;;;;;6.75;1.58;;;18.70;99.90;;;;;;4983894;28;20030;-72
2022/09/28 05:09:25;;;;;;;7.63;1.33;;;18.90;99.90;;;;;;4984358;28;20034;-72
2022/09/28 05:11:53;;;;;;;6.22;1.10;;;18.70;99.90;;;;;;4983406;28;20027;-73
2022/09/28 05:14:21;;;;;;;2.60;0.82;;;18.70;99.90;;;;;;4977685;28;20118;-72
2022/09/28 05:16:49;;;;;;;3.42;0.93;;;18.60;99.90;;;;;;4978138;28;20022;-72
2022/09/28 05:19:17;;;;;;;1.38;0.70;;;18.50;99.90;;;;;;4977805;28;20065;-73
2022/09/28 05:21:48;;;;;;;1.80;0.80;;;18.50;99.90;;;;;;4978336;28;20026;-73
2022/09/28 05:24:15;;;;;;;3.35;1.00;;;18.40;99.90;;;;;;4977923;28;20014;-73
2022/09/28 05:26:43;;;;;;;3.30;1.10;;;18.30;99.90;;;;;;4978460;28;20034;-72
2022/09/28 05:29:11;;;;;;;4.85;0.95;;;18.30;99.90;;;;;;4977825;28;20015;-75
2022/09/28 05:31:38;;;;;;;5.70;1.55;;;18.20;99.90;;;;;;4978570;28;20034;-74
2022/09/28 05:34:06;;;;;;;2.85;1.08;;;18.10;99.90;;;;;;4980021;28;20041;-70
2022/09/28 05:36:34;;;;;;;6.65;1.02;;;17.90;99.90;;;;;;4984458;28;20015;-69
2022/09/28 05:39:02;;;;;;;1.50;0.77;;;17.90;99.90;;;;;;4994031;28;20402;-69
2022/09/28 05:41:30;;;;;;;7.20;1.77;;;17.90;99.90;;;;;;4994580;28;20050;-69
2022/09/28 05:43:58;;;;;;;4.95;1.05;;;18.00;99.90;;;;;;4994569;28;20030;-70
2022/09/28 05:46:25;;;;;;;2.22;1.10;;;18.10;99.90;;;;;;4994594;28;20026;-76
2022/09/28 05:48:53;;;;;;;5.53;1.42;;;18.10;99.90;;;;;;4994524;28;20022;-69
2022/09/28 05:51:23;;;;;;;5.97;1.25;;;18.00;99.90;;;;;;4994363;28;20031;-68
2022/09/28 05:53:54;;;;;;;4.78;1.50;;;18.00;99.90;;;;;;4994500;28;20030;-67
2022/09/28 05:56:21;;;;;;;7.03;1.88;;;18.00;99.90;;;;;;4994562;28;20036;-68
2022/09/28 05:58:49;;;;;;;8.48;1.88;;;18.00;99.90;;;;;;4994362;28;20026;-68
2022/09/28 06:01:17;;;;;;;3.58;1.42;;;17.90;99.90;;;;;;4993608;28;20494;-70
2022/09/28 06:03:45;;;;;;;8.45;1.30;;;17.80;99.90;;;;;;4994340;28;20022;-71
2022/09/28 06:06:12;;;;;;;6.32;1.45;;;17.70;99.90;;;;;;4994333;28;20076;-69
2022/09/28 06:08:45;;;;;;;9.10;2.20;;;17.60;99.90;;;;;;4994251;28;20038;-69
2022/09/28 06:11:12;;;;;;;5.50;1.83;;;17.60;99.90;;;;;;4990035;28;20466;-69
2022/09/28 06:13:40;;;;;;;7.82;1.35;;;17.50;99.90;;;;;;4992928;28;20045;-72
2022/09/28 06:16:13;;;;;;;6.93;2.10;;;17.40;99.90;;;;;;4993869;28;20026;-69
2022/09/28 06:18:41;;;;;;;5.47;1.38;;;17.40;99.90;;;;;;4987212;28;20464;-70
2022/09/28 06:21:10;;;;;;;11.32;2.15;;;17.30;99.90;;;;;;4982005;28;20039;-69
2022/09/28 06:23:38;;;;;;;6.68;1.10;;;17.20;99.90;;;;;;4982796;28;20377;-67
2022/09/28 06:26:05;;;;;;;6.35;2.00;;;17.10;99.90;;;;;;4992136;28;20030;-67
2022/09/28 06:28:33;;;;;;;15.23;1.77;;;17.10;99.90;;;;;;4991995;28;20438;-67
2022/09/28 06:31:01;;;;;;;5.18;1.10;;;17.00;99.90;;;;;;4991577;28;20077;-67
2022/09/28 06:33:29;;;;;;;5.38;1.50;;;16.90;99.90;;;;;;4992625;28;20030;-67
2022/09/28 06:35:59;;;;;;;10.73;1.25;;;16.80;99.90;;;;;;4992473;28;20499;-67
2022/09/28 06:38:28;;;;;;;4.60;1.70;;;16.70;99.90;;;;;;4990969;28;20030;-67
2022/09/28 06:40:57;;;;;;;9.73;1.95;;;16.60;99.90;;;;;;4991538;28;20039;-67
2022/09/28 06:43:25;;;;;;;7.05;1.42;;;16.50;99.90;;;;;;4990446;28;20018;-67
2022/09/28 06:45:54;;;;;;;4.90;1.88;;;16.40;99.90;;;;;;4989992;28;20027;-67
2022/09/28 06:48:25;;;;;;;6.53;1.85;;;16.30;99.90;;;;;;4989880;28;20076;-67
2022/09/28 06:50:52;;;;;;;7.32;1.58;;;16.30;99.90;;;;;;4989940;28;20033;-67
2022/09/28 06:53:21;;;;;;;6.10;1.73;;;16.20;99.90;;;;;;4992071;28;20494;-67
2022/09/28 06:55:49;;;;;;;6.78;1.23;;;16.20;99.90;;;;;;4992540;28;20026;-68
2022/09/28 06:58:19;;;;;;;8.73;1.80;;;16.20;99.90;;;;;;4993571;28;20030;-68
2022/09/28 07:00:49;;;;;;;5.25;1.35;;;16.10;99.90;;;;;;4993671;28;20034;-67
2022/09/28 07:03:21;;;;;;;7.63;1.85;;;16.10;99.90;;;;;;4993902;28;20080;-67
2022/09/28 07:05:52;;;;;;;5.35;2.10;;;16.00;99.90;;;;;;4993734;28;20475;-67
2022/09/28 07:08:27;;;;;;;6.10;2.03;;;16.00;99.90;;;;;;4993800;28;20085;-67
2022/09/28 07:10:55;;;;;;;6.30;1.52;;;16.00;99.90;;;;;;4992285;28;20479;-67
2022/09/28 07:13:28;;;;;;;8.23;2.10;;;16.00;99.90;;;;;;4997380;28;20105;-67
2022/09/28 07:15:58;;;;;;;15.80;2.47;;;16.00;99.90;;;;;;4996779;28;20022;-67
2022/09/28 07:18:27;;;;;;;8.73;1.40;;;16.00;99.90;;;;;;4995485;28;20419;-67
2022/09/28 07:20:56;;;;;;;6.07;1.73;;;15.90;99.90;;;;;;4992635;28;20039;-67
2022/09/28 07:23:30;;;;;;;5.70;2.63;;;15.90;99.90;;;;;;4995627;28;20023;-67
2022/09/28 07:26:02;;;;;;;8.00;2.70;;;15.90;99.90;;;;;;4996625;28;20026;-68
2022/09/28 07:28:31;;;;;;;12.50;2.35;;;15.90;99.90;;;;;;4993493;28;20037;-69
2022/09/28 07:30:58;;;;;;;11.30;1.80;;;16.00;99.90;;;;;;4994744;28;20046;-71
2022/09/28 07:33:29;;;;;;;4.97;1.52;;;15.90;99.90;;;;;;4992204;28;20026;-72
2022/09/28 07:35:56;;;;;;;7.05;1.48;;;16.00;99.90;;;;;;4994783;28;20015;-71
2022/09/28 07:38:25;;;;;;;5.80;1.73;;;16.00;99.90;;;;;;4994319;28;20387;-70
2022/09/28 07:41:11;;;;;;;5.57;2.13;;;15.90;99.90;;;;;;4995917;28;20039;-70
2022/09/28 07:43:38;;;;;;;;;;;15.90;99.90;;;;;;4995648;28;20538;-70
2022/09/28 07:46:12;;;;;;;8.43;2.45;;;15.90;99.90;;;;;;4994518;28;19913;-70
2022/09/28 07:48:44;;;;;;;4.57;1.50;;;15.80;99.90;;;;;;4994407;28;20057;-70
2022/09/28 07:51:12;;;;;;;5.32;1.48;;;15.70;99.90;;;;;;4994142;28;20467;-70
2022/09/28 07:53:40;;;;;;;9.07;1.42;;;15.70;99.90;;;;;;4993548;28;20030;-70
2022/09/28 07:56:08;;;;;;;8.00;1.73;;;15.60;99.90;;;;;;4994469;28;20022;-70
2022/09/28 07:58:40;;;;;;;6.03;1.67;;;15.50;99.90;;;;;;4994735;28;20152;-70
2022/09/28 08:01:14;;;;;;;4.45;2.17;;;15.40;99.90;;;;;;4994846;28;20031;-70
2022/09/28 08:03:46;;;;;;;5.40;1.67;;;15.40;99.90;;;;;;4992145;28;20376;-70
2022/09/28 08:06:16;;;;;;;10.35;1.90;;;15.40;99.90;;;;;;4992513;28;20422;-70
2022/09/28 08:08:44;;;;;;;6.43;1.33;;;15.30;99.90;;;;;;4992397;28;20022;-70
2022/09/28 08:11:17;;;;;;;7.35;1.77;;;15.20;99.90;;;;;;4994983;28;20030;-71
2022/09/28 08:13:46;;;;;;;3.78;1.40;;;15.20;99.90;;;;;;4992370;28;20018;-69
2022/09/28 08:16:14;;;;;;;8.68;2.25;;;15.20;99.90;;;;;;4995028;28;20034;-71
2022/09/28 08:18:41;;;;;;;4.60;1.25;;;15.20;99.90;;;;;;4995213;28;20116;-69
2022/09/28 08:23:56;;;;;;;2.72;1.45;;;15.20;99.90;;;;;;4993832;28;20281;-70
2022/09/28 08:26:24;;;;;;;6.55;1.83;;;15.20;99.90;;;;;;4994283;28;20117;-70
2022/09/28 08:28:52;;;;;;;13.27;2.42;;;15.20;99.90;;;;;;4994248;28;20463;-70
2022/09/28 08:31:19;;;;;;;4.88;2.10;;;15.20;99.90;;;;;;4994473;28;20487;-70
2022/09/28 08:33:53;;;;;;;9.00;1.75;;;15.20;99.90;;;;;;4994900;28;20072;-70
2022/09/28 08:36:21;;;;;;;4.70;2.00;;;15.20;99.90;;;;;;4994386;28;20395;-69
2022/09/28 08:38:48;;;;;;;9.68;2.03;;;15.20;99.90;;;;;;4994648;28;20464;-69
2022/09/28 08:41:38;;;;;;;13.20;1.95;;;15.20;99.90;;;;;;4994331;28;20030;-70
2022/09/28 08:44:05;;;;;;;5.43;2.22;;;15.20;99.90;;;;;;4994633;28;20018;-68
2022/09/28 08:46:43;;;;;;;6.95;1.63;;;15.10;99.90;;;;;;4994572;28;20530;-69
2022/09/28 08:49:20;;;;;;;7.18;1.83;;;15.10;99.90;;;;;;4995254;28;20022;-70
2022/09/28 08:51:53;;;;;;;5.90;1.98;;;15.00;99.90;;;;;;4994108;28;20026;-70
2022/09/28 08:54:21;;;;;;;10.10;3.33;;;15.00;99.90;;;;;;4993297;28;20029;-71
2022/09/28 08:57:13;;;;;;;8.25;1.60;;;15.00;99.90;;;;;;4994240;28;20046;-70
2022/09/28 08:59:55;;;;;;;7.38;1.50;;;14.90;99.90;;;;;;4988767;28;20042;-70
2022/09/28 09:02:34;;;;;;;5.10;1.75;;;14.80;99.90;;;;;;4994694;28;20033;-68
2022/09/28 09:05:07;;;;;;;3.42;1.10;;;14.80;99.90;;;;;;4994058;28;20022;-71
2022/09/28 09:08:01;;;;;;;7.95;1.33;;;14.70;99.90;;;;;;4993942;28;20026;-71
2022/09/28 09:10:44;;;;;;;2.40;0.75;;;14.70;99.90;;;;;;4993833;28;20027;-71
2022/09/28 09:13:31;;;;;;;4.63;1.05;;;14.60;99.90;;;;;;4994018;28;20026;-69
2022/09/28 09:16:08;;;;;;;6.55;2.10;;;14.60;99.90;;;;;;4994663;28;20029;-71
2022/09/28 09:18:53;;;;;;;4.20;1.10;;;14.50;99.90;;;;;;4987987;28;20065;-70
2022/09/28 09:21:27;;;;;;;3.65;1.23;;;14.60;99.90;;;;;;4990985;28;20030;-68
2022/09/28 09:24:06;;;;;;;7.22;1.23;;;14.70;99.90;;;;;;4993590;28;20032;-71
2022/09/28 09:26:40;;;;;;;5.80;1.15;;;14.80;99.90;;;;;;4992141;28;20026;-71
2022/09/28 09:29:27;;;;;;;3.80;1.10;;;14.80;99.90;;;;;;4990936;28;20026;-70
2022/09/28 09:32:16;;;;;;;4.80;2.05;;;14.70;99.90;;;;;;4993839;28;20038;-71
2022/09/28 09:34:56;;;;;;;3.20;1.60;;;14.70;99.90;;;;;;4992422;28;20018;-71
2022/09/28 09:37:33;;;;;;;10.00;2.03;;;14.60;99.90;;;;;;4992798;28;20014;-70
2022/09/28 09:40:26;;;;;;;3.95;1.17;;;14.50;99.90;;;;;;4992695;28;20026;-70
2022/09/28 09:43:12;;;;;;;4.60;1.60;;;14.40;99.90;;;;;;4991030;28;20014;-69
2022/09/28 09:46:04;;;;;;;2.38;1.40;;;14.30;99.90;;;;;;4992616;28;20026;-71
2022/09/28 09:48:46;;;;;;;4.50;1.48;;;14.30;99.90;;;;;;4992579;28;20025;-70
2022/09/28 09:51:32;;;;;;;5.97;1.60;;;14.20;99.90;;;;;;4987203;28;20093;-71
2022/09/28 09:54:06;;;;;;;4.93;1.58;;;14.10;99.90;;;;;;4991541;28;20503;-69
2022/09/28 09:56:42;;;;;;;5.40;2.08;;;14.10;99.90;;;;;;4987900;28;20427;-72
2022/09/28 09:59:23;;;;;;;4.70;1.75;;;14.00;99.90;;;;;;4983158;28;20019;-70
2022/09/28 10:01:52;;;;;;;4.95;1.83;;;14.00;99.90;;;;;;4985785;28;20085;-71
2022/09/28 10:04:40;;;;;;;6.80;1.90;;;13.90;99.90;;;;;;4986286;28;20025;-71
2022/09/28 10:07:15;;;;;;;5.07;2.45;;;13.90;99.90;;;;;;4986295;28;20030;-71
2022/09/28 10:09:46;;;;;;;3.55;1.88;;;13.80;99.90;;;;;;4978737;28;20030;-70
2022/09/28 10:12:20;;;;;;;3.50;1.75;;;13.80;99.90;;;;;;4976141;28;20069;-71
2022/09/28 10:14:49;;;;;;;2.97;1.65;;;13.80;99.90;;;;;;4974886;28;20023;-70
2022/09/28 10:17:25;;;;;;;3.42;1.88;;;13.70;99.90;;;;;;4974328;28;20026;-71
2022/09/28 10:19:55;;;;;;;4.40;2.00;;;13.60;99.90;;;;;;4976321;28;20070;-70
2022/09/28 10:22:26;;;;;;;8.38;2.17;;;13.60;99.90;;;;;;4978053;28;20034;-69
2022/09/28 10:24:57;;;;;;;3.88;1.75;;;13.60;99.90;;;;;;4975577;28;20033;-69
2022/09/28 10:27:34;;;;;;;4.13;1.92;;;13.60;99.90;;;;;;4973815;28;20058;-69
2022/09/28 10:30:23;;;;;;;3.40;1.75;;;13.60;99.90;;;;;;4975881;28;20515;-69
2022/09/28 10:32:54;;;;;;;2.97;1.52;;;13.60;99.90;;;;;;4975714;28;20034;-70
2022/09/28 10:35:39;;;;;;;10.02;2.35;;;13.60;99.90;;;;;;4976795;28;20038;-71
2022/09/28 10:38:27;;;;;;;5.57;2.53;;;13.60;99.90;;;;;;4974792;28;20078;-70
2022/09/28 10:41:00;;;;;;;3.80;1.67;;;13.60;99.90;;;;;;4974999;28;20117;-70
2022/09/28 10:43:37;;;;;;;4.18;2.08;;;13.60;99.90;;;;;;4973751;28;20074;-69
2022/09/28 10:46:20;;;;;;;6.25;1.90;;;13.60;99.90;;;;;;4976135;28;20078;-69
2022/09/28 10:49:02;;;;;;;3.83;1.50;;;13.60;99.90;;;;;;4979955;28;20030;-70
2022/09/28 10:51:53;;;;;;;3.80;1.98;;;13.70;99.90;;;;;;4980305;28;20022;-71
2022/09/28 10:54:28;;;;;;;5.55;1.42;;;13.70;99.90;;;;;;4979701;28;20023;-70
2022/09/28 10:56:57;;;;;;;5.60;1.20;;;13.70;99.90;;;;;;4981340;28;20027;-70
2022/09/28 10:59:31;;;;;;;9.35;1.20;;;13.70;99.90;;;;;;4978668;28;20030;-70
2022/09/28 11:02:16;;;;;;;3.28;1.20;;;13.70;99.90;;;;;;4995406;28;20050;-70
2022/09/28 11:04:52;;;;;;;3.33;1.00;;;13.70;99.90;;;;;;4990931;28;20814;-70
2022/09/28 11:07:29;;;;;;;3.92;1.33;;;13.70;99.90;;;;;;4978795;28;20530;-70
2022/09/28 11:09:58;;;;;;;5.03;1.02;;;13.60;99.90;;;;;;4978026;28;20030;-71
2022/09/28 11:12:35;;;;;;;4.25;1.30;;;13.60;99.90;;;;;;4977798;28;20023;-70
2022/09/28 11:15:06;;;;;;;6.85;1.00;;;13.50;99.90;;;;;;4977211;28;20081;-68
2022/09/28 11:17:40;;;;;;;5.35;1.30;;;13.50;99.90;;;;;;4979551;28;20030;-69
2022/09/28 11:20:24;;;;;;;4.03;0.60;;;13.50;99.90;;;;;;4978941;28;20169;-69
2022/09/28 11:22:52;;;;;;;2.65;0.73;;;13.40;99.90;;;;;;4979003;28;20029;-69
2022/09/28 11:25:23;;;;;;;1.80;0.88;;;13.40;99.90;;;;;;4979061;28;20059;-69
2022/09/28 11:27:51;;;;;;;2.65;0.63;;;13.40;99.90;;;;;;4976882;28;20019;-69
2022/09/28 11:30:31;;;;;;;2.00;0.77;;;13.40;99.90;;;;;;4980626;28;20054;-69
2022/09/28 11:33:29;;;;;;;1.17;0.68;;;13.40;99.90;;;;;;4978642;28;20069;-69
2022/09/28 11:36:13;;;;;;;0.93;0.60;;;13.40;99.90;;;;;;4978079;28;20061;-68
2022/09/28 11:38:59;;;;;;;2.38;1.10;;;13.30;99.90;;;;;;4978148;28;20452;-69
2022/09/28 11:41:44;;;;;;;;;;;13.30;99.90;;;;;;4977379;28;20035;-70
2022/09/28 11:44:36;;;;;;;0.55;0.32;;;13.30;99.90;;;;;;4978761;28;19949;-70
2022/09/28 11:47:21;;;;;;;1.55;0.82;;;13.30;99.90;;;;;;4978755;28;20033;-70
2022/09/28 11:49:56;;;;;;;0.85;0.40;;;13.30;99.90;;;;;;4978081;28;20018;-69
2022/09/28 11:52:32;;;;;;;6.30;0.50;;;13.30;99.90;;;;;;4979101;28;20047;-70
2022/09/28 11:55:27;;;;;;;1.42;0.70;;;13.20;99.90;;;;;;4977408;28;20030;-68
2022/09/28 11:58:21;;;;;;;1.75;0.60;;;13.10;99.90;;;;;;4976520;28;20031;-69
2022/09/28 12:01:09;;;;;;;2.15;0.60;;;13.10;99.90;;;;;;4978416;28;20027;-71
2022/09/28 12:03:45;;;;;;;1.65;0.50;;;13.00;99.90;;;;;;4979523;28;20361;-70
2022/09/28 12:06:21;;;;;;;1.58;0.60;;;12.90;99.90;;;;;;4980098;28;20023;-70
2022/09/28 12:09:01;;;;;;;1.67;0.70;;;12.90;99.90;;;;;;4989323;28;20048;-70
2022/09/28 12:11:42;;;;;;;0.70;0.47;;;12.90;99.90;;;;;;4984556;28;20023;-70
2022/09/28 12:14:30;;;;;;;0.68;0.57;;;12.90;99.90;;;;;;4995981;28;20018;-70
2022/09/28 12:17:18;;;;;;;2.05;0.47;;;12.90;99.90;;;;;;4996032;28;20030;-68
2022/09/28 12:19:49;;;;;;;3.35;0.50;;;12.90;99.90;;;;;;4992150;28;20026;-70
2022/09/28 12:22:48;;;;;;;0.40;0.40;;;12.80;99.90;;;;;;4988344;28;20030;-69
2022/09/28 12:25:21;;;;;;;0.52;0.45;;;12.80;99.90;;;;;;4967171;28;20397;-69
2022/09/28 12:28:02;;;;;;;1.42;0.82;;;12.80;99.90;;;;;;4983877;28;20460;-69
2022/09/28 12:30:36;;;;;;;1.88;0.90;;;12.80;99.90;;;;;;4983576;28;20047;-69
2022/09/28 12:33:14;;;;;;;1.55;1.15;;;12.70;99.90;;;;;;4984683;28;20082;-70
2022/09/28 12:35:50;;;;;;;3.25;1.05;;;12.70;99.90;;;;;;4984784;28;20109;-71
2022/09/28 12:38:30;;;;;;;3.05;1.00;;;12.60;99.90;;;;;;4985171;28;20109;-70
2022/09/28 12:41:15;;;;;;;1.88;0.98;;;12.60;99.90;;;;;;4985096;28;20379;-69
2022/09/28 12:44:17;;;;;;;3.50;0.82;;;12.60;99.90;;;;;;4986582;28;20022;-68
2022/09/28 12:47:13;;;;;;;3.72;0.80;;;12.60;99.90;;;;;;4995885;28;20037;-70
2022/09/28 12:50:08;;;;;;;1.75;0.75;;;12.60;99.90;;;;;;4995654;28;20026;-70
2022/09/28 12:53:00;;;;;;;1.17;0.70;;;12.60;99.90;;;;;;4995658;28;20023;-69
2022/09/28 12:55:38;;;;;;;5.45;1.15;;;12.60;99.90;;;;;;4995648;28;20037;-69
2022/09/28 12:58:24;;;;;;;1.88;0.60;;;12.60;99.90;;;;;;4996116;28;20026;-69
2022/09/28 13:01:08;;;;;;;1.88;0.88;;;12.60;99.90;;;;;;4995267;28;20471;-69
2022/09/28 13:04:08;;;;;;;1.27;0.70;;;12.60;99.90;;;;;;4995459;28;20035;-69
2022/09/28 13:06:54;;;;;;;3.38;1.63;;;12.50;99.90;;;;;;4995375;28;20050;-69
2022/09/28 13:09:26;;;;;;;3.97;0.90;;;12.50;99.90;;;;;;4994994;28;20467;-69
2022/09/28 13:12:20;;;;;;;2.63;1.00;;;12.50;99.90;;;;;;4995172;28;20030;-71
2022/09/28 13:15:31;;;;;;;2.42;1.17;;;12.50;99.90;;;;;;4995204;28;20054;-69
2022/09/28 13:18:10;;;;;;;1.17;0.88;;;12.50;99.90;;;;;;4995232;28;20061;-70
2022/09/28 13:21:25;;;;;;;1.15;0.98;;;12.50;99.90;;;;;;4994969;28;20113;-70
2022/09/28 13:23:57;;;;;;;1.80;0.93;;;12.50;99.90;;;;;;4990304;28;20031;-70
2022/09/28 13:26:30;;;;;;;1.70;0.80;;;12.40;99.90;;;;;;4994958;28;20554;-71
2022/09/28 13:29:03;;;;;;;1.23;1.02;;;12.40;99.90;;;;;;4995049;28;20032;-71
2022/09/28 13:31:32;;;;;;;1.95;0.82;;;12.40;99.90;;;;;;4992632;28;20050;-72
2022/09/28 13:34:02;;;;;;;2.90;1.00;;;12.40;99.90;;;;;;4985902;28;20029;-73